createdAt,value
2019-03-30T00:01:44.636Z,86.86
2019-03-30T00:04:36.686Z,87.29
2019-03-30T00:07:20.853Z,88.70
2019-03-30T00:09:58.856Z,88.35
2019-03-30T00:12:33.108Z,87.49
2019-03-30T00:15:53.377Z,86.64
2019-03-30T00:18:30.510Z,86.59
2019-03-30T00:20:59.697Z,86.64
2019-03-30T00:23:36.144Z,86.44
2019-03-30T00:26:08.000Z,86.33
2019-03-30T00:28:44.483Z,87.18
2019-03-30T00:31:13.534Z,87.64
2019-03-30T00:33:43.331Z,88.32
2019-03-30T00:36:22.134Z,88.34
2019-03-30T00:38:58.254Z,88.12
2019-03-30T00:41:28.386Z,87.48
2019-03-30T00:44:00.524Z,87.43
2019-03-30T00:46:34.493Z,89.58
2019-03-30T00:49:14.340Z,89.41
2019-03-30T00:51:48.224Z,89.59
2019-03-30T00:54:25.158Z,90.48
2019-03-30T00:56:54.316Z,90.41
2019-03-30T00:59:23.601Z,89.82
2019-03-30T01:01:52.772Z,90.72
2019-03-30T01:04:21.977Z,91.69
2019-03-30T01:06:51.150Z,91.77
2019-03-30T01:09:20.327Z,91.11
2019-03-30T01:11:49.837Z,90.37
2019-03-30T01:14:19.005Z,89.39
2019-03-30T01:16:48.163Z,89.38
2019-03-30T01:19:17.353Z,89.14
2019-03-30T01:21:46.598Z,88.83
2019-03-30T01:24:15.875Z,88.98
2019-03-30T01:26:45.114Z,89.99
2019-03-30T01:29:14.299Z,90.06
2019-03-30T01:31:43.461Z,89.85
2019-03-30T01:34:12.687Z,90.62
2019-03-30T01:36:41.830Z,90.62
2019-03-30T01:39:11.077Z,90.93
2019-03-30T01:41:40.338Z,91.10
2019-03-30T01:44:09.575Z,91.41
2019-03-30T01:46:38.792Z,91.07
2019-03-30T01:49:07.940Z,92.26
2019-03-30T01:51:37.140Z,93.03
2019-03-30T01:54:06.345Z,92.93
2019-03-30T01:56:35.631Z,92.92
2019-03-30T01:59:05.053Z,92.58
2019-03-30T02:01:34.391Z,92.06
2019-03-30T02:04:03.686Z,92.35
2019-03-30T02:06:33.069Z,92.05
2019-03-30T02:09:02.339Z,92.67
2019-03-30T02:11:31.655Z,92.51
2019-03-30T02:14:00.904Z,92.29
2019-03-30T02:16:30.180Z,91.57
2019-03-30T02:18:59.537Z,92.19
2019-03-30T02:21:28.800Z,92.41
2019-03-30T02:23:58.068Z,92.05
2019-03-30T02:26:27.398Z,92.12
2019-03-30T02:28:56.667Z,92.45
2019-03-30T02:31:26.016Z,92.20
2019-03-30T02:33:55.287Z,92.71
2019-03-30T02:36:24.642Z,93.27
2019-03-30T02:38:53.977Z,93.25
2019-03-30T02:41:23.254Z,93.12
2019-03-30T02:43:52.523Z,92.78
2019-03-30T02:46:21.831Z,92.94
2019-03-30T02:48:51.101Z,93.56
2019-03-30T02:51:20.462Z,93.75
2019-03-30T02:53:49.732Z,93.94
2019-03-30T02:56:19.118Z,94.64
2019-03-30T02:58:48.426Z,94.66
2019-03-30T03:01:17.714Z,94.46
2019-03-30T03:03:47.034Z,94.22
2019-03-30T03:06:16.311Z,95.16
2019-03-30T03:08:45.607Z,96.09
2019-03-30T03:11:14.970Z,96.27
2019-03-30T03:13:44.221Z,96.69
2019-03-30T03:16:13.502Z,96.94
2019-03-30T03:18:42.842Z,97.49
2019-03-30T03:21:12.193Z,97.44
2019-03-30T03:23:41.467Z,97.35
2019-03-30T03:26:10.837Z,97.42
2019-03-30T03:28:40.092Z,97.50
2019-03-30T03:31:09.383Z,97.09
2019-03-30T03:33:38.753Z,96.56
2019-03-30T03:36:08.058Z,96.38
2019-03-30T03:38:37.317Z,95.64
2019-03-30T03:41:06.682Z,94.86
2019-03-30T03:43:36.108Z,94.85
2019-03-30T03:46:05.485Z,94.75
2019-03-30T03:48:34.720Z,95.25
2019-03-30T03:51:05.303Z,95.77
2019-03-30T03:53:35.662Z,96.51
2019-03-30T03:56:06.076Z,97.06
2019-03-30T03:58:36.450Z,96.88
2019-03-30T04:01:05.829Z,97.15
2019-03-30T04:03:35.397Z,96.74
2019-03-30T04:06:06.754Z,96.27
2019-03-30T04:08:36.658Z,96.28
2019-03-30T04:11:06.003Z,96.04
2019-03-30T04:13:35.296Z,96.99
2019-03-30T04:16:04.605Z,97.15
2019-03-30T04:18:33.950Z,97.19
2019-03-30T04:21:03.219Z,96.53
2019-03-30T04:23:32.515Z,96.08
2019-03-30T04:26:01.794Z,96.71
2019-03-30T04:28:31.102Z,96.69
2019-03-30T04:31:00.684Z,96.47
2019-03-30T04:33:30.055Z,95.95
2019-03-30T04:35:59.311Z,95.71
2019-03-30T04:38:28.581Z,95.81
2019-03-30T04:40:57.841Z,97.01
2019-03-30T04:43:27.142Z,96.72
2019-03-30T04:45:56.404Z,96.39
2019-03-30T04:48:29.336Z,96.70
2019-03-30T04:50:56.687Z,96.80
2019-03-30T04:53:26.049Z,97.12
2019-03-30T04:55:55.405Z,97.67
2019-03-30T04:58:24.747Z,97.81
2019-03-30T05:00:54.130Z,97.52
2019-03-30T05:03:23.394Z,97.60
2019-03-30T05:05:52.754Z,97.59
2019-03-30T05:08:22.082Z,98.00
2019-03-30T05:10:51.408Z,98.54
2019-03-30T05:13:20.688Z,98.85
2019-03-30T05:15:49.951Z,98.64
2019-03-30T05:18:19.283Z,98.68
2019-03-30T05:20:48.591Z,98.29
2019-03-30T05:23:17.905Z,97.88
2019-03-30T05:25:47.271Z,97.54
2019-03-30T05:28:16.593Z,97.58
2019-03-30T05:30:48.151Z,98.04
2019-03-30T05:33:17.420Z,98.43
2019-03-30T05:35:46.785Z,98.08
2019-03-30T05:38:16.146Z,98.36
2019-03-30T05:40:45.415Z,98.90
2019-03-30T05:43:14.686Z,98.82
2019-03-30T05:45:43.917Z,98.52
2019-03-30T05:48:13.079Z,97.97
2019-03-30T05:50:42.368Z,97.92
2019-03-30T05:53:11.561Z,98.02
2019-03-30T05:55:40.747Z,97.96
2019-03-30T05:58:10.259Z,98.34
2019-03-30T06:00:39.507Z,98.61
2019-03-30T06:03:10.253Z,98.68
2019-03-30T06:05:39.443Z,98.29
2019-03-30T06:08:08.622Z,98.00
2019-03-30T06:10:39.009Z,98.00
2019-03-30T06:13:08.400Z,97.82
2019-03-30T06:15:37.597Z,97.46
2019-03-30T06:18:06.775Z,97.33
2019-03-30T06:20:35.932Z,97.30
2019-03-30T06:23:05.142Z,97.56
2019-03-30T06:25:34.413Z,97.65
2019-03-30T06:28:03.668Z,97.52
2019-03-30T06:30:32.928Z,97.30
2019-03-30T06:33:02.160Z,96.87
2019-03-30T06:35:31.462Z,96.49
2019-03-30T06:38:00.650Z,96.21
2019-03-30T06:40:29.843Z,95.95
2019-03-30T06:43:02.026Z,95.95
2019-03-30T06:45:31.225Z,95.79
2019-03-30T06:48:00.393Z,95.52
2019-03-30T06:50:31.618Z,95.20
2019-03-30T06:53:00.857Z,94.42
2019-03-30T06:55:30.133Z,93.77
2019-03-30T06:57:59.322Z,93.59
2019-03-30T07:00:37.924Z,93.44
2019-03-30T07:03:07.813Z,93.15
2019-03-30T07:05:39.861Z,92.99
2019-03-30T07:08:17.168Z,92.08
2019-03-30T07:10:46.559Z,91.17
2019-03-30T07:13:15.986Z,89.90
2019-03-30T07:15:47.242Z,89.83
2019-03-30T07:18:16.774Z,89.61
2019-03-30T07:20:46.062Z,89.35
2019-03-30T07:23:15.336Z,88.28
2019-03-30T07:25:44.582Z,87.69
2019-03-30T07:28:13.821Z,87.13
2019-03-30T07:30:43.029Z,87.04
2019-03-30T07:33:12.206Z,86.79
2019-03-30T07:35:41.397Z,86.54
2019-03-30T07:38:10.665Z,86.04
2019-03-30T07:40:39.945Z,85.93
2019-03-30T07:43:09.217Z,86.17
2019-03-30T07:45:38.560Z,85.98
2019-03-30T07:48:07.717Z,85.04
2019-03-30T07:50:36.998Z,84.45
2019-03-30T07:53:06.219Z,84.21
2019-03-30T07:55:35.507Z,84.34
2019-03-30T07:58:04.807Z,84.21
2019-03-30T08:00:33.944Z,83.71
2019-03-30T08:03:03.102Z,82.95
2019-03-30T08:05:32.582Z,82.71
2019-03-30T08:08:01.837Z,82.54
2019-03-30T08:10:31.112Z,82.07
2019-03-30T08:13:00.766Z,81.87
2019-03-30T08:15:30.008Z,80.97
2019-03-30T08:17:59.210Z,81.08
2019-03-30T08:20:28.378Z,80.15
2019-03-30T08:22:59.050Z,79.92
2019-03-30T08:25:28.210Z,78.24
2019-03-30T08:27:57.420Z,78.77
2019-03-30T08:30:26.689Z,78.44
2019-03-30T08:32:55.904Z,78.15
2019-03-30T08:35:25.150Z,77.67
2019-03-30T08:37:54.335Z,77.09
2019-03-30T08:40:24.711Z,77.26
2019-03-30T08:42:54.084Z,76.99
2019-03-30T08:45:25.319Z,74.68
2019-03-30T08:47:54.643Z,74.16
2019-03-30T08:50:29.522Z,74.10
2019-03-30T08:52:58.726Z,73.01
2019-03-30T08:55:28.005Z,73.07
2019-03-30T08:58:02.263Z,72.05
2019-03-30T09:00:39.520Z,71.06
2019-03-30T09:03:09.026Z,70.49
2019-03-30T09:05:38.249Z,70.28
2019-03-30T09:08:07.471Z,70.08
2019-03-30T09:10:36.829Z,70.28
2019-03-30T09:13:06.093Z,70.19
2019-03-30T09:15:35.408Z,69.14
2019-03-30T09:18:04.967Z,68.99
2019-03-30T09:20:34.473Z,69.00
2019-03-30T09:23:03.790Z,68.16
2019-03-30T09:28:31.606Z,66.94
2019-03-30T09:31:01.100Z,66.92
2019-03-30T09:33:30.314Z,66.37
2019-03-30T09:35:59.498Z,66.09
2019-03-30T09:38:28.765Z,66.11
2019-03-30T09:40:57.927Z,65.13
2019-03-30T09:43:27.245Z,64.37
2019-03-30T09:45:56.427Z,65.34
2019-03-30T09:48:25.793Z,65.02
2019-03-30T09:50:54.990Z,64.65
2019-03-30T09:53:24.193Z,64.17
2019-03-30T09:55:55.440Z,62.23
2019-03-30T09:58:24.690Z,61.89
2019-03-30T10:00:53.884Z,61.65
2019-03-30T10:03:23.073Z,62.78
2019-03-30T10:05:52.288Z,61.28
2019-03-30T10:08:21.461Z,61.23
2019-03-30T10:10:50.672Z,61.49
2019-03-30T10:13:19.897Z,61.57
2019-03-30T10:15:49.069Z,60.64
2019-03-30T10:18:18.282Z,59.95
2019-03-30T10:20:47.533Z,59.37
2019-03-30T10:23:16.721Z,59.28
2019-03-30T10:25:45.981Z,59.15
2019-03-30T10:28:15.170Z,58.30
2019-03-30T10:30:44.435Z,57.55
2019-03-30T10:33:13.686Z,56.87
2019-03-30T10:35:42.919Z,57.56
2019-03-30T10:38:12.097Z,56.01
2019-03-30T10:40:41.314Z,57.02
2019-03-30T10:43:10.561Z,56.27
2019-03-30T10:45:39.814Z,55.55
2019-03-30T10:48:09.071Z,55.97
2019-03-30T10:50:38.292Z,56.01
2019-03-30T10:53:07.636Z,55.83
2019-03-30T10:55:37.025Z,55.15
2019-03-30T10:58:06.136Z,55.48
2019-03-30T11:00:36.980Z,53.63
2019-03-30T11:03:06.148Z,53.54
2019-03-30T11:05:35.454Z,54.36
2019-03-30T11:08:04.721Z,54.65
2019-03-30T11:10:33.989Z,54.19
2019-03-30T11:13:03.175Z,53.55
2019-03-30T11:15:34.311Z,53.70
2019-03-30T11:18:03.671Z,53.04
2019-03-30T11:20:33.078Z,52.88
2019-03-30T11:23:02.409Z,52.88
2019-03-30T11:25:31.569Z,53.00
2019-03-30T11:28:00.882Z,52.36
2019-03-30T11:30:30.555Z,52.63
2019-03-30T11:32:59.754Z,50.75
2019-03-30T11:35:28.980Z,50.63
2019-03-30T11:37:58.212Z,50.56
2019-03-30T11:40:27.521Z,51.15
2019-03-30T11:42:56.697Z,52.60
2019-03-30T11:45:26.197Z,51.42
2019-03-30T11:47:55.436Z,51.42
2019-03-30T11:50:24.669Z,52.22
2019-03-30T11:52:53.868Z,52.38
2019-03-30T11:55:23.186Z,52.10
2019-03-30T11:57:52.396Z,50.42
2019-03-30T12:00:21.749Z,50.98
2019-03-30T12:02:50.952Z,50.02
2019-03-30T12:05:20.265Z,50.20
2019-03-30T12:07:49.533Z,50.40
2019-03-30T12:10:20.890Z,49.38
2019-03-30T12:12:50.190Z,49.53
2019-03-30T12:15:19.525Z,48.63
2019-03-30T12:17:48.751Z,50.79
2019-03-30T12:20:18.121Z,50.23
2019-03-30T12:22:47.287Z,50.02
2019-03-30T12:25:16.607Z,49.62
2019-03-30T12:27:45.788Z,48.42
2019-03-30T12:30:15.202Z,48.65
2019-03-30T12:32:44.393Z,49.37
2019-03-30T12:35:13.687Z,48.47
2019-03-30T12:37:42.881Z,48.66
2019-03-30T12:40:12.220Z,48.09
2019-03-30T12:42:42.441Z,48.09
2019-03-30T12:45:12.134Z,49.12
2019-03-30T12:47:41.309Z,49.12
2019-03-30T12:50:11.350Z,47.93
2019-03-30T12:52:40.593Z,47.73
2019-03-30T12:55:20.963Z,47.73
2019-03-30T12:57:57.394Z,47.69
2019-03-30T13:00:29.663Z,47.69
2019-03-30T13:03:04.347Z,45.01
2019-03-30T13:05:34.928Z,45.01
2019-03-30T13:08:09.393Z,46.03
2019-03-30T13:10:40.151Z,46.03
2019-03-30T13:13:13.240Z,44.83
2019-03-30T13:15:45.370Z,45.61
2019-03-30T13:18:24.862Z,45.61
2019-03-30T13:20:56.151Z,46.56
2019-03-30T13:23:26.784Z,42.54
2019-03-30T13:26:04.018Z,42.46
2019-03-30T13:28:30.870Z,43.92
2019-03-30T13:31:05.409Z,43.92
2019-03-30T13:33:38.106Z,43.80
2019-03-30T13:36:28.899Z,42.99
2019-03-30T13:39:03.616Z,41.32
2019-03-30T13:41:52.456Z,41.74
2019-03-30T13:44:29.544Z,41.74
2019-03-30T13:47:00.128Z,41.57
2019-03-30T13:49:34.571Z,40.57
2019-03-30T13:52:04.765Z,40.34
2019-03-30T13:54:38.841Z,38.90
2019-03-30T13:57:11.704Z,38.32
2019-03-30T13:59:42.243Z,37.80
2019-03-30T14:02:19.271Z,39.88
2019-03-30T14:04:53.279Z,39.88
2019-03-30T14:07:30.281Z,38.86
2019-03-30T14:10:03.754Z,38.11
2019-03-30T14:12:39.678Z,39.57
2019-03-30T14:15:10.947Z,39.66
2019-03-30T14:17:45.692Z,39.66
2019-03-30T14:23:26.809Z,39.41
2019-03-30T14:25:58.657Z,39.10
2019-03-30T14:28:33.341Z,37.52
2019-03-30T14:31:04.338Z,37.52
2019-03-30T14:33:38.492Z,38.60
2019-03-30T14:36:08.808Z,38.09
2019-03-30T14:38:39.282Z,38.03
2019-03-30T14:41:17.757Z,37.40
2019-03-30T14:43:54.359Z,37.73
2019-03-30T14:46:45.113Z,36.66
2019-03-30T14:49:20.673Z,37.76
2019-03-30T14:51:51.728Z,36.49
2019-03-30T14:54:22.638Z,36.49
2019-03-30T14:56:53.758Z,38.41
2019-03-30T14:59:30.012Z,37.19
2019-03-30T15:02:01.208Z,36.74
2019-03-30T15:04:41.808Z,35.46
2019-03-30T15:07:13.210Z,37.68
2019-03-30T15:09:44.505Z,37.06
2019-03-30T15:12:23.319Z,35.77
2019-03-30T15:14:54.799Z,36.07
2019-03-30T15:17:26.572Z,36.16
2019-03-30T15:19:59.953Z,37.03
2019-03-30T15:22:32.361Z,36.85
2019-03-30T15:25:02.561Z,37.27
2019-03-30T15:27:32.426Z,37.27
2019-03-30T15:30:01.674Z,36.89
2019-03-30T15:32:30.866Z,37.38
2019-03-30T15:35:00.031Z,38.26
2019-03-30T15:37:29.220Z,37.08
2019-03-30T15:40:08.188Z,37.08
2019-03-30T15:42:40.139Z,36.91
2019-03-30T15:45:11.540Z,37.22
2019-03-30T15:47:40.849Z,37.00
2019-03-30T15:50:10.488Z,36.85
2019-03-30T15:52:39.699Z,36.85
2019-03-30T15:55:09.024Z,37.14
2019-03-30T15:57:38.331Z,36.54
2019-03-30T16:00:08.535Z,36.02
2019-03-30T16:02:37.698Z,36.02
2019-03-30T16:05:07.180Z,36.48
2019-03-30T16:07:36.446Z,35.95
2019-03-30T16:10:05.858Z,35.95
2019-03-30T16:12:42.439Z,37.55
2019-03-30T16:15:11.878Z,34.69
2019-03-30T16:17:41.041Z,34.69
2019-03-30T16:20:10.295Z,35.25
2019-03-30T16:22:39.543Z,35.53
2019-03-30T16:25:08.859Z,35.66
2019-03-30T16:27:39.405Z,35.94
2019-03-30T16:30:09.388Z,34.36
2019-03-30T16:32:38.537Z,34.47
2019-03-30T16:35:07.705Z,34.59
2019-03-30T16:37:36.902Z,34.53
2019-03-30T16:40:07.030Z,33.37
2019-03-30T16:42:36.471Z,33.37
2019-03-30T16:45:06.134Z,35.44
2019-03-30T16:47:35.348Z,35.18
2019-03-30T16:50:05.210Z,35.57
2019-03-30T16:52:34.880Z,36.26
2019-03-30T16:55:04.134Z,36.01
2019-03-30T16:57:43.305Z,36.01
2019-03-30T17:00:06.793Z,36.23
2019-03-30T17:02:35.960Z,37.16
2019-03-30T17:05:05.769Z,37.16
2019-03-30T17:07:35.249Z,37.67
2019-03-30T17:10:05.227Z,37.67
2019-03-30T17:12:34.477Z,37.29
2019-03-30T17:15:03.894Z,37.78
2019-03-30T17:17:33.147Z,38.98
2019-03-30T17:20:02.309Z,38.17
2019-03-30T17:22:31.480Z,38.47
2019-03-30T17:25:00.661Z,38.47
2019-03-30T17:27:29.889Z,41.00
2019-03-30T17:29:59.102Z,41.29
2019-03-30T17:32:28.375Z,40.57
2019-03-30T17:34:57.536Z,40.57
2019-03-30T17:37:26.807Z,40.73
2019-03-30T17:39:56.805Z,42.57
2019-03-30T17:42:25.954Z,44.30
2019-03-30T17:44:55.146Z,43.62
2019-03-30T17:47:43.518Z,43.53
2019-03-30T17:50:13.213Z,43.53
2019-03-30T17:52:42.557Z,45.69
2019-03-30T17:55:12.054Z,45.69
2019-03-30T17:57:41.215Z,44.84
2019-03-30T18:00:14.190Z,45.68
2019-03-30T18:02:43.413Z,45.37
2019-03-30T18:05:12.683Z,45.37
2019-03-30T18:07:41.929Z,46.41
2019-03-30T18:10:11.503Z,46.77
2019-03-30T18:12:40.794Z,46.77
2019-03-30T18:15:12.146Z,47.45
2019-03-30T18:17:41.364Z,48.00
2019-03-30T18:20:11.716Z,48.24
2019-03-30T18:22:41.013Z,49.24
2019-03-30T18:25:10.359Z,49.24
2019-03-30T18:27:39.551Z,50.45
2019-03-30T18:30:09.320Z,50.21
2019-03-30T18:32:38.613Z,49.64
2019-03-30T18:35:07.955Z,47.40
2019-03-30T18:37:37.579Z,47.21
2019-03-30T18:40:07.804Z,47.21
2019-03-30T18:42:37.049Z,47.43
2019-03-30T18:45:07.415Z,49.23
2019-03-30T18:47:36.768Z,49.23
2019-03-30T18:50:06.645Z,51.59
2019-03-30T18:52:36.392Z,51.59
2019-03-30T18:55:05.745Z,51.52
2019-03-30T18:57:35.031Z,51.68
2019-03-30T19:00:04.643Z,51.68
2019-03-30T19:02:33.820Z,52.19
2019-03-30T19:05:02.992Z,52.53
2019-03-30T19:07:32.310Z,53.13
2019-03-30T19:10:03.292Z,53.13
2019-03-30T19:12:33.707Z,54.25
2019-03-30T19:15:18.215Z,54.30
2019-03-30T19:17:47.877Z,54.11
2019-03-30T19:20:22.892Z,54.16
2019-03-30T19:22:55.329Z,54.40
2019-03-30T19:25:29.819Z,54.17
2019-03-30T19:28:04.475Z,55.63
2019-03-30T19:30:38.055Z,56.31
2019-03-30T19:33:11.993Z,56.29
2019-03-30T19:35:46.629Z,56.75
2019-03-30T19:38:17.450Z,56.39
2019-03-30T19:40:51.268Z,57.39
2019-03-30T19:43:22.595Z,57.56
2019-03-30T19:45:55.593Z,57.65
2019-03-30T19:48:30.192Z,58.72
2019-03-30T19:51:07.339Z,58.60
2019-03-30T19:53:45.742Z,57.93
2019-03-30T19:56:16.145Z,57.86
2019-03-30T19:58:47.706Z,58.38
2019-03-30T20:01:20.236Z,59.00
2019-03-30T20:03:54.071Z,58.72
2019-03-30T20:06:25.246Z,59.15
2019-03-30T20:09:20.725Z,59.18
2019-03-30T20:11:51.785Z,58.93
2019-03-30T20:14:21.768Z,61.31
2019-03-30T20:17:13.814Z,60.19
2019-03-30T20:19:59.449Z,60.59
2019-03-30T20:22:50.740Z,60.12
2019-03-30T20:25:25.799Z,60.80
2019-03-30T20:27:56.102Z,62.38
2019-03-30T20:30:42.587Z,62.03
2019-03-30T20:33:15.020Z,61.56
2019-03-30T20:35:51.405Z,61.71
2019-03-30T20:38:21.144Z,62.42
2019-03-30T20:40:51.197Z,63.70
2019-03-30T20:43:31.478Z,63.40
2019-03-30T20:46:08.190Z,62.49
2019-03-30T20:48:38.663Z,62.88
2019-03-30T20:51:42.226Z,62.16
2019-03-30T20:54:17.015Z,63.52
2019-03-30T20:57:01.009Z,62.22
2019-03-30T20:59:40.138Z,66.19
2019-03-30T21:02:11.943Z,64.91
2019-03-30T21:04:43.730Z,64.53
2019-03-30T21:07:17.191Z,63.96
2019-03-30T21:09:47.974Z,63.77
2019-03-30T21:12:20.957Z,64.66
2019-03-30T21:14:50.688Z,65.10
2019-03-30T21:17:31.161Z,65.60
2019-03-30T21:20:05.435Z,64.98
2019-03-30T21:22:36.827Z,64.28
2019-03-30T21:25:11.612Z,63.39
2019-03-30T21:27:43.248Z,63.83
2019-03-30T21:30:14.110Z,63.59
2019-03-30T21:32:48.414Z,63.72
2019-03-30T21:35:33.600Z,64.02
2019-03-30T21:38:24.009Z,63.46
2019-03-30T21:40:57.640Z,65.20
2019-03-30T21:43:30.806Z,65.71
2019-03-30T21:46:02.408Z,66.55
2019-03-30T21:48:40.895Z,66.90
2019-03-30T21:51:15.621Z,66.65
2019-03-30T21:53:46.954Z,66.72
2019-03-30T21:56:22.739Z,66.36
2019-03-30T21:58:54.553Z,67.19
2019-03-30T22:04:24.988Z,68.83
2019-03-30T22:07:00.098Z,67.98
2019-03-30T22:09:50.398Z,67.79
2019-03-30T22:12:26.696Z,67.88
2019-03-30T22:14:57.618Z,67.72
2019-03-30T22:17:30.190Z,67.66
2019-03-30T22:20:07.131Z,68.27
2019-03-30T22:22:39.309Z,68.53
2019-03-30T22:25:10.799Z,68.26
2019-03-30T22:27:50.975Z,68.85
2019-03-30T22:30:24.997Z,69.21
2019-03-30T22:32:54.309Z,69.67
2019-03-30T22:35:27.552Z,69.27
2019-03-30T22:37:58.004Z,69.46
2019-03-30T22:40:27.421Z,69.38
2019-03-30T22:42:59.547Z,69.25
2019-03-30T22:45:31.912Z,69.26
2019-03-30T22:48:16.083Z,69.70
2019-03-30T22:50:46.651Z,69.21
2019-03-30T22:53:21.143Z,69.27
2019-03-30T22:56:17.365Z,69.83
2019-03-30T22:58:49.164Z,70.66
2019-03-30T23:01:23.549Z,70.83
2019-03-30T23:03:56.539Z,71.29
2019-03-30T23:06:27.514Z,70.59
2019-03-30T23:09:01.066Z,69.44
2019-03-30T23:11:34.410Z,68.85
2019-03-30T23:14:05.209Z,69.09
2019-03-30T23:16:34.665Z,69.25
2019-03-30T23:19:09.645Z,68.58
2019-03-30T23:22:03.562Z,69.21
2019-03-30T23:24:45.625Z,69.40
2019-03-30T23:27:23.051Z,71.41
2019-03-30T23:29:58.660Z,71.67
2019-03-30T23:32:33.748Z,71.10
2019-03-30T23:35:06.214Z,72.35
2019-03-30T23:37:42.919Z,72.40
2019-03-30T23:40:12.265Z,72.36
2019-03-30T23:42:47.008Z,72.17
2019-03-30T23:45:26.040Z,72.48
2019-03-30T23:47:56.021Z,74.95
2019-03-30T23:50:26.390Z,74.83
2019-03-30T23:52:59.051Z,74.30
2019-03-30T23:55:30.268Z,73.76
2019-03-30T23:58:05.113Z,73.54
